Time;durP1;ratioP1;P1;durP2;ratioP2;P2;SDS_P1;SDS_P2;PMS_P1;PMS_P2;Temp;Humidity;BMP_temperature;BMP_pressure;BME280_temperature;BME280_humidity;BME280_pressure;Samples;Min_cycle;Max_cycle;Signal;HPM_P1;HPM_P2
2022/09/06 00:00:58;;;;;;;4.90;2.67;;;;;;;20.11;56.84;100426.75;4940142;29;20059;-72
2022/09/06 00:03:26;;;;;;;3.72;2.80;;;;;;;20.12;57.10;100428.44;4937737;29;20086;-72
2022/09/06 00:05:53;;;;;;;3.70;2.78;;;;;;;20.11;57.01;100426.75;4937860;29;20051;-72
2022/09/06 00:08:20;;;;;;;4.30;2.78;;;;;;;20.12;57.35;100423.94;4937067;29;20125;-70
2022/09/06 00:10:47;;;;;;;3.78;2.70;;;;;;;20.15;56.81;100425.47;4939098;29;20070;-72
2022/09/06 00:13:13;;;;;;;5.45;2.35;;;;;;;20.15;56.81;100423.63;4932918;29;20478;-72
2022/09/06 00:15:40;;;;;;;4.25;2.45;;;;;;;20.09;56.58;100423.34;4933440;29;20055;-73
2022/09/06 00:18:07;;;;;;;2.63;2.40;;;;;;;20.08;56.92;100416.25;4932709;29;20044;-71
2022/09/06 00:20:40;;;;;;;4.70;2.75;;;;;;;19.98;56.69;100399.22;4921563;29;20509;-73
2022/09/06 00:23:06;;;;;;;3.70;2.40;;;;;;;19.92;56.59;100388.00;4929411;29;20138;-70
2022/09/06 00:25:34;;;;;;;4.82;2.50;;;;;;;19.92;56.70;100395.22;4932594;29;20142;-69
2022/09/06 00:28:03;;;;;;;5.35;2.58;;;;;;;20.00;56.92;100421.41;4931185;29;20094;-74
2022/09/06 00:30:32;;;;;;;5.50;2.20;;;;;;;19.92;56.72;100406.81;4933941;29;20454;-75
2022/09/06 00:32:59;;;;;;;3.05;2.40;;;;;;;19.93;56.64;100413.03;4924416;29;21025;-74
2022/09/06 00:35:26;;;;;;;3.58;2.47;;;;;;;19.82;57.00;100394.31;4927520;29;20146;-74
2022/09/06 00:37:58;;;;;;;4.75;2.85;;;;;;;19.94;56.96;100415.59;4907571;29;20163;-70
2022/09/06 00:40:28;;;;;;;5.53;2.65;;;;;;;19.81;56.98;100398.81;4922651;29;20114;-68
2022/09/06 00:42:56;;;;;;;4.18;2.50;;;;;;;19.78;57.10;100388.34;4924521;29;20071;-69
2022/09/06 00:45:26;;;;;;;3.40;2.33;;;;;;;19.91;56.89;100415.00;4921142;29;20052;-70
2022/09/06 00:47:52;;;;;;;5.85;2.42;;;;;;;19.90;57.24;100418.69;4920591;29;20741;-70
2022/09/06 00:50:19;;;;;;;2.83;2.20;;;;;;;19.82;57.07;100405.06;4925283;29;20063;-70
2022/09/06 00:52:49;;;;;;;4.50;2.60;;;;;;;19.87;57.12;100408.19;4921934;29;20075;-70
2022/09/06 00:55:16;;;;;;;4.97;2.30;;;;;;;19.86;57.06;100418.06;4926969;29;20048;-70
2022/09/06 00:57:45;;;;;;;2.55;2.20;;;;;;;19.74;57.11;100399.47;4923723;29;20055;-74
2022/09/06 01:00:12;;;;;;;2.75;2.22;;;;;;;19.85;57.14;100416.38;4922794;29;20055;-71
2022/09/06 01:02:38;;;;;;;5.63;2.35;;;;;;;19.84;57.18;100416.50;4921637;29;20052;-70
2022/09/06 01:05:06;;;;;;;3.80;2.40;;;;;;;19.88;56.82;100418.81;4921682;29;20079;-71
2022/09/06 01:07:53;;;;;;;3.63;2.38;;;;;;;19.78;56.99;100392.84;4921864;29;20059;-72
2022/09/06 01:10:42;;;;;;;3.63;2.35;;;;;;;19.84;56.83;100403.06;4923114;29;20082;-72
2022/09/06 01:13:22;;;;;;;3.53;2.45;;;;;;;19.96;56.87;100419.03;4920370;29;20148;-72
2022/09/06 01:16:22;;;;;;;4.50;2.63;;;;;;;19.95;56.86;100413.78;4924090;29;20150;-71
2022/09/06 01:19:35;;;;;;;5.75;2.42;;;;;;;19.95;56.83;100422.69;4897705;29;20052;-72
2022/09/06 01:22:33;;;;;;;3.75;2.50;;;;;;;19.85;56.65;100412.81;4924373;29;20079;-72
2022/09/06 01:25:27;;;;;;;8.65;2.70;;;;;;;19.97;56.85;100427.94;4922536;29;20153;-70
2022/09/06 01:28:20;;;;;;;4.38;3.17;;;;;;;19.85;56.80;100415.53;4919660;29;20689;-72
2022/09/06 01:30:56;;;;;;;5.82;2.42;;;;;;;19.88;56.75;100416.13;4923981;29;20119;-70
2022/09/06 01:33:34;;;;;;;3.85;2.10;;;;;;;19.87;56.64;100418.94;4922541;29;20056;-71
2022/09/06 01:36:05;;;;;;;5.18;2.38;;;;;;;19.98;56.63;100431.47;4931946;29;20439;-72
2022/09/06 01:38:33;;;;;;;4.05;2.50;;;;;;;19.99;56.58;100435.88;4926753;29;20486;-72
2022/09/06 01:41:00;;;;;;;2.75;2.40;;;;;;;19.99;57.00;100434.00;4923048;29;20075;-71
2022/09/06 01:43:31;;;;;;;8.10;2.70;;;;;;;19.96;56.62;100429.78;4921587;29;20079;-72
2022/09/06 01:46:16;;;;;;;5.50;2.50;;;;;;;19.99;56.71;100434.00;4919750;29;20052;-71
2022/09/06 01:48:52;;;;;;;3.38;2.30;;;;;;;19.97;56.73;100427.94;4923217;29;20044;-72
2022/09/06 01:51:45;;;;;;;4.82;2.55;;;;;;;20.00;56.63;100429.47;4922374;29;20103;-69
2022/09/06 01:54:27;;;;;;;4.38;2.20;;;;;;;19.96;57.05;100413.63;4922223;29;20048;-67
2022/09/06 01:57:11;;;;;;;4.53;2.22;;;;;;;19.99;56.69;100425.13;4933700;29;20079;-72
2022/09/06 02:00:07;;;;;;;3.22;2.47;;;;;;;19.96;56.54;100423.53;4920555;29;20126;-68
2022/09/06 02:02:55;;;;;;;4.95;2.15;;;;;;;19.93;56.90;100451.53;4923579;29;20458;-71
2022/09/06 02:05:47;;;;;;;6.57;2.85;;;;;;;19.95;57.37;100586.63;4922784;29;20055;-72
2022/09/06 02:08:24;;;;;;;19.45;3.00;;;;;;;19.93;57.19;100574.31;4923948;29;20111;-72
2022/09/06 02:10:57;;;;;;;16.02;3.25;;;;;;;19.99;56.89;100490.44;4924892;29;20066;-69
2022/09/06 02:13:27;;;;;;;11.70;3.05;;;;;;;20.01;56.45;100517.19;4934662;29;20091;-68
2022/09/06 02:16:00;;;;;;;7.85;2.53;;;;;;;20.26;56.19;100531.16;4933695;29;20103;-70
2022/09/06 02:18:49;;;;;;;4.28;2.95;;;;;;;20.32;55.95;100524.38;4941065;29;20063;-69
2022/09/06 02:21:20;;;;;;;8.13;2.78;;;;;;;20.34;55.69;100506.28;4933948;29;20501;-68
2022/09/06 02:23:50;;;;;;;5.68;2.63;;;;;;;20.41;56.06;100512.03;4931598;29;20102;-70
2022/09/06 02:26:20;;;;;;;5.35;2.42;;;;;;;20.61;54.89;100503.94;4928131;29;20553;-72
2022/09/06 02:28:48;;;;;;;4.25;2.50;;;;;;;20.83;53.92;100512.81;4924122;29;20079;-72
2022/09/06 02:31:19;;;;;;;4.88;2.25;;;;;;;21.06;53.59;100502.72;4921624;29;20550;-68
2022/09/06 02:33:47;;;;;;;2.40;2.13;;;;;;;21.23;52.59;100502.94;4923254;29;20138;-66
2022/09/06 02:36:14;;;;;;;6.40;2.53;;;;;;;21.33;52.34;100513.72;4923578;29;20083;-70
2022/09/06 02:38:43;;;;;;;2.47;1.98;;;;;;;21.33;52.05;100503.81;4921948;29;20044;-70
2022/09/06 02:41:12;;;;;;;7.43;2.72;;;;;;;21.34;52.26;100505.53;4919287;29;20112;-70
2022/09/06 02:43:41;;;;;;;3.03;1.98;;;;;;;21.31;52.52;100500.41;4920474;29;20628;-71
2022/09/06 02:46:07;;;;;;;2.72;2.10;;;;;;;21.29;52.66;100502.38;4921521;29;20074;-71
2022/09/06 02:48:34;;;;;;;4.80;2.20;;;;;;;21.26;52.80;100489.19;4921858;29;20095;-72
2022/09/06 02:51:05;;;;;;;2.65;1.88;;;;;;;21.23;52.48;100478.72;4920242;29;20142;-70
2022/09/06 02:53:33;;;;;;;2.42;2.03;;;;;;;21.23;52.89;100467.94;4924106;29;20770;-70
2022/09/06 02:55:59;;;;;;;4.25;2.40;;;;;;;21.27;52.70;100452.31;4926673;29;20091;-70
2022/09/06 02:58:26;;;;;;;2.25;1.80;;;;;;;21.32;53.21;100447.38;4920890;29;20600;-70
2022/09/06 03:00:53;;;;;;;2.83;2.13;;;;;;;21.36;53.02;100451.50;4925601;29;20518;-72
2022/09/06 03:03:20;;;;;;;2.70;1.88;;;;;;;21.44;53.11;100457.03;4920991;29;20048;-73
2022/09/06 03:05:49;;;;;;;3.92;1.75;;;;;;;21.56;53.19;100452.38;4923417;29;20086;-69
2022/09/06 03:08:16;;;;;;;1.92;1.63;;;;;;;21.60;53.35;100441.16;4923149;29;20111;-71
2022/09/06 03:10:54;;;;;;;2.28;1.60;;;;;;;21.60;53.51;100446.56;4920721;29;20047;-69
2022/09/06 03:13:23;;;;;;;2.25;1.67;;;;;;;21.62;53.73;100447.25;4921553;29;20048;-69
2022/09/06 03:15:55;;;;;;;2.60;1.70;;;;;;;21.59;53.61;100434.06;4924130;29;20047;-70
2022/09/06 03:18:26;;;;;;;2.53;1.40;;;;;;;21.55;53.97;100431.81;4921332;29;20407;-71
2022/09/06 03:20:54;;;;;;;1.50;1.40;;;;;;;21.54;54.45;100435.50;4922413;29;20746;-70
2022/09/06 03:23:23;;;;;;;1.95;1.50;;;;;;;21.50;54.69;100426.00;4919086;29;20526;-67
2022/09/06 03:25:50;;;;;;;4.80;1.90;;;;;;;21.53;54.80;100421.19;4919837;29;20056;-68
2022/09/06 03:28:18;;;;;;;2.20;1.70;;;;;;;21.52;55.53;100419.47;4917867;29;20126;-68
2022/09/06 03:30:49;;;;;;;1.95;1.70;;;;;;;21.49;56.57;100406.28;4919396;29;20166;-69
2022/09/06 03:33:16;;;;;;;3.53;1.90;;;;;;;21.46;57.08;100406.56;4918358;29;20051;-67
2022/09/06 03:35:58;;;;;;;3.42;1.73;;;;;;;21.43;57.69;100400.59;4928020;29;20122;-70
2022/09/06 03:38:26;;;;;;;2.55;1.80;;;;;;;21.37;58.30;100387.72;4931288;29;20092;-69
2022/09/06 03:40:53;;;;;;;4.03;3.05;;;;;;;21.26;61.92;100378.75;4922357;29;20051;-68
2022/09/06 03:43:22;;;;;;;2.33;1.80;;;;;;;21.09;61.72;100368.66;4925876;29;20075;-71
2022/09/06 03:45:51;;;;;;;3.00;1.80;;;;;;;20.99;62.66;100349.78;4923559;29;20091;-71
2022/09/06 03:48:20;;;;;;;2.90;1.83;;;;;;;20.81;62.82;100340.69;4922448;29;20115;-68
2022/09/06 03:50:53;;;;;;;1.90;1.60;;;;;;;20.82;63.21;100352.31;4922844;29;20481;-68
2022/09/06 03:53:20;;;;;;;3.75;2.88;;;;;;;20.94;63.88;100370.88;4922639;29;20055;-69
2022/09/06 03:55:49;;;;;;;2.33;2.00;;;;;;;20.92;63.07;100337.91;4917720;29;20131;-67
2022/09/06 03:58:18;;;;;;;3.20;2.10;;;;;;;20.96;62.80;100338.44;4902942;29;20047;-70
2022/09/06 04:00:45;;;;;;;2.38;1.98;;;;;;;20.92;62.78;100335.22;4919556;29;20135;-70
2022/09/06 04:03:12;;;;;;;1.90;1.70;;;;;;;20.90;63.43;100347.94;4919906;29;20055;-68
2022/09/06 04:05:39;;;;;;;3.60;1.70;;;;;;;20.90;63.59;100349.78;4921069;29;20047;-70
2022/09/06 04:08:05;;;;;;;2.72;1.90;;;;;;;20.93;63.33;100346.81;4919851;29;20504;-72
2022/09/06 04:10:32;;;;;;;2.00;1.90;;;;;;;20.92;62.90;100351.34;4919368;29;20557;-71
2022/09/06 04:12:59;;;;;;;3.75;1.98;;;;;;;20.96;62.84;100365.38;4917162;29;20043;-71
2022/09/06 04:15:25;;;;;;;2.58;1.98;;;;;;;20.98;62.54;100375.00;4918196;29;20127;-69
2022/09/06 04:17:52;;;;;;;4.38;1.90;;;;;;;20.99;61.94;100381.25;4919652;29;20059;-69
2022/09/06 04:20:19;;;;;;;5.40;2.08;;;;;;;20.92;61.29;100367.50;4922067;29;20047;-70
2022/09/06 04:22:45;;;;;;;3.60;1.98;;;;;;;21.02;61.28;100386.34;4923773;29;20054;-71
2022/09/06 04:25:12;;;;;;;5.75;2.33;;;;;;;21.04;60.42;100373.59;4918768;29;20478;-70
2022/09/06 04:27:39;;;;;;;4.25;2.53;;;;;;;21.08;60.01;100371.50;4921135;29;20462;-72
2022/09/06 04:30:06;;;;;;;4.53;2.40;;;;;;;20.97;59.68;100359.84;4923289;29;20460;-69
2022/09/06 04:32:33;;;;;;;3.08;2.42;;;;;;;21.10;58.66;100377.56;4923181;29;20111;-71
2022/09/06 04:35:00;;;;;;;3.20;2.40;;;;;;;21.11;58.64;100387.34;4923196;29;20091;-72
2022/09/06 04:37:26;;;;;;;3.20;2.25;;;;;;;21.05;58.65;100385.22;4923345;29;20194;-71
2022/09/06 04:39:54;;;;;;;4.78;2.45;;;;;;;21.03;58.87;100388.06;4922110;29;20134;-71
2022/09/06 04:42:21;;;;;;;5.15;2.60;;;;;;;21.00;58.73;100391.88;4924466;29;20052;-69
2022/09/06 04:44:47;;;;;;;3.30;2.45;;;;;;;21.01;57.67;100401.66;4923674;29;20104;-71
2022/09/06 04:47:15;;;;;;;3.58;2.42;;;;;;;20.97;57.81;100394.00;4924861;29;20426;-69
2022/09/06 04:49:41;;;;;;;4.68;2.40;;;;;;;20.83;58.18;100391.69;4925412;29;20090;-68
2022/09/06 04:52:08;;;;;;;3.13;2.38;;;;;;;20.77;58.49;100400.34;4922919;29;20058;-70
2022/09/06 04:54:35;;;;;;;6.53;2.88;;;;;;;20.67;58.84;100397.59;4922478;29;20142;-68
2022/09/06 04:57:02;;;;;;;4.03;2.40;;;;;;;20.56;59.01;100397.69;4922544;29;20240;-70
2022/09/06 04:59:29;;;;;;;3.60;2.80;;;;;;;20.44;59.81;100388.03;4924674;29;20158;-70
2022/09/06 05:01:55;;;;;;;7.47;3.03;;;;;;;20.35;60.38;100392.34;4921421;29;20051;-69
2022/09/06 05:04:22;;;;;;;4.55;3.00;;;;;;;20.29;60.55;100411.72;4930153;29;20074;-70
2022/09/06 05:06:58;;;;;;;6.20;2.85;;;;;;;20.16;60.85;100419.13;4929597;29;20048;-70
2022/09/06 05:09:24;;;;;;;3.45;2.72;;;;;;;20.04;61.31;100409.44;4930337;29;20199;-69
2022/09/06 05:11:51;;;;;;;4.70;3.28;;;;;;;20.02;61.57;100412.25;4930798;29;20051;-71
2022/09/06 05:14:17;;;;;;;5.32;3.13;;;;;;;19.98;62.13;100416.19;4932139;29;20052;-70
2022/09/06 05:16:45;;;;;;;5.65;2.63;;;;;;;20.01;61.72;100425.81;4926237;29;20052;-69
2022/09/06 05:19:12;;;;;;;4.13;2.80;;;;;;;19.93;62.03;100418.41;4924821;29;20135;-70
2022/09/06 05:21:39;;;;;;;6.40;3.15;;;;;;;19.79;62.39;100402.63;4931128;29;20056;-69
2022/09/06 05:24:06;;;;;;;5.68;3.15;;;;;;;19.75;62.59;100414.59;4930899;29;20525;-70
2022/09/06 05:26:33;;;;;;;3.45;3.00;;;;;;;19.74;63.23;100420.97;4932325;29;20120;-72
2022/09/06 05:28:59;;;;;;;6.32;3.80;;;;;;;19.70;63.28;100425.72;4930891;29;20099;-69
2022/09/06 05:31:28;;;;;;;5.05;3.25;;;;;;;19.66;63.72;100426.16;4926222;29;20059;-70
2022/09/06 05:33:56;;;;;;;9.63;4.00;;;;;;;19.46;64.12;100412.50;4929893;29;20044;-75
2022/09/06 05:36:27;;;;;;;6.03;3.45;;;;;;;19.55;64.42;100432.41;4928576;29;20066;-74
2022/09/06 05:38:55;;;;;;;6.32;3.53;;;;;;;19.37;64.46;100417.78;4931082;29;20052;-71
2022/09/06 05:41:23;;;;;;;5.80;2.90;;;;;;;19.46;64.99;100438.50;4929373;29;20115;-69
2022/09/06 05:43:50;;;;;;;9.60;3.53;;;;;;;19.40;65.13;100447.06;4920442;29;20044;-75
2022/09/06 05:46:16;;;;;;;4.65;3.10;;;;;;;19.40;64.97;100450.59;4929223;29;20090;-72
2022/09/06 05:48:50;;;;;;;3.97;2.67;;;;;;;19.42;65.62;100455.84;4921698;29;20059;-72
2022/09/06 05:51:16;;;;;;;5.10;3.30;;;;;;;19.36;65.56;100457.19;4922549;29;20151;-70
2022/09/06 05:53:44;;;;;;;5.85;3.22;;;;;;;19.33;66.07;100472.75;4926638;29;20048;-72
2022/09/06 05:56:13;;;;;;;8.35;3.47;;;;;;;19.31;66.02;100470.19;4919005;29;20060;-68
2022/09/06 05:58:39;;;;;;;6.85;3.33;;;;;;;19.32;66.11;100471.03;4927635;29;20079;-71
2022/09/06 06:01:18;;;;;;;5.93;3.40;;;;;;;19.32;66.15;100468.34;4927503;29;20071;-70
2022/09/06 06:03:57;;;;;;;7.97;3.70;;;;;;;19.33;66.22;100464.69;4924921;29;20071;-68
2022/09/06 06:06:26;;;;;;;3.55;3.20;;;;;;;19.38;66.09;100466.00;4917868;29;20067;-69
2022/09/06 06:08:53;;;;;;;7.53;3.60;;;;;;;19.43;66.11;100465.63;4922914;29;20060;-71
2022/09/06 06:11:20;;;;;;;5.70;3.47;;;;;;;19.47;65.25;100461.72;4919942;29;20155;-68
2022/09/06 06:13:46;;;;;;;6.80;3.50;;;;;;;19.58;65.44;100473.28;4917632;29;20099;-71
2022/09/06 06:16:16;;;;;;;4.70;2.90;;;;;;;19.69;66.13;100475.06;4901071;29;20055;-71
2022/09/06 06:18:43;;;;;;;4.87;3.20;;;;;;;19.78;65.71;100471.63;4922416;29;20122;-72
2022/09/06 06:21:22;;;;;;;8.60;3.50;;;;;;;19.86;64.64;100481.72;4922803;29;20132;-70
2022/09/06 06:24:03;;;;;;;6.07;3.53;;;;;;;19.73;64.09;100463.09;4918104;29;20079;-70
2022/09/06 06:26:34;;;;;;;7.65;3.50;;;;;;;19.86;64.22;100479.03;4924786;29;20084;-70
2022/09/06 06:29:02;;;;;;;7.35;3.72;;;;;;;19.88;63.64;100475.25;4922437;29;20075;-71
2022/09/06 06:31:30;;;;;;;11.30;4.22;;;;;;;20.00;63.75;100488.63;4919889;29;20501;-69
2022/09/06 06:33:58;;;;;;;7.80;3.70;;;;;;;20.10;63.37;100482.34;4922388;29;20055;-71
2022/09/06 06:36:25;;;;;;;6.38;3.78;;;;;;;20.15;63.44;100480.09;4929223;29;20677;-69
2022/09/06 06:38:54;;;;;;;7.05;4.78;;;;;;;20.09;62.65;100475.25;4928251;29;20569;-69
2022/09/06 06:41:23;;;;;;;12.23;3.95;;;;;;;20.20;62.69;100482.41;4918637;29;20403;-69
2022/09/06 06:43:53;;;;;;;8.38;3.72;;;;;;;20.26;62.47;100492.66;4921264;29;20106;-70
2022/09/06 06:46:21;;;;;;;6.57;3.63;;;;;;;20.30;62.24;100488.72;4925959;29;20044;-70
2022/09/06 06:48:48;;;;;;;8.20;3.80;;;;;;;20.18;62.35;100458.31;4919412;29;20052;-72
2022/09/06 06:51:25;;;;;;;7.20;3.65;;;;;;;20.32;62.84;100482.19;4921348;29;20089;-69
